createdAt,value
2023-05-12T00:04:08.713Z,97737.06
2023-05-12T00:09:10.619Z,97733.59
2023-05-12T00:14:12.292Z,97741.47
2023-05-12T00:19:13.953Z,97742.34
2023-05-12T00:24:15.688Z,97744.41
2023-05-12T00:29:18.446Z,97741.69
2023-05-12T00:34:20.116Z,97739.09
2023-05-12T00:39:21.914Z,97729.94
2023-05-12T00:44:23.638Z,97737.41
2023-05-12T00:49:26.978Z,97743.91
2023-05-12T00:54:30.283Z,97741.00
2023-05-12T00:59:32.135Z,97746.03
2023-05-12T01:04:35.277Z,97731.88
2023-05-12T01:09:37.479Z,97733.47
2023-05-12T01:14:41.393Z,97731.25
2023-05-12T01:19:53.644Z,97737.09
2023-05-12T01:24:58.306Z,97735.19
2023-05-12T01:30:03.990Z,97728.47
2023-05-12T01:35:09.361Z,97733.88
2023-05-12T01:40:14.038Z,97732.00
2023-05-12T01:45:15.696Z,97725.25
2023-05-12T01:50:17.479Z,97729.56
2023-05-12T01:55:19.549Z,97730.63
2023-05-12T02:00:27.301Z,97729.91
2023-05-12T02:05:31.609Z,97730.72
2023-05-12T02:10:34.454Z,97731.88
2023-05-12T02:15:36.123Z,97726.41
2023-05-12T02:20:38.080Z,97734.16
2023-05-12T02:25:40.034Z,97727.69
2023-05-12T02:30:49.069Z,97725.41
2023-05-12T02:35:51.286Z,97726.38
2023-05-12T02:40:53.009Z,97718.94
2023-05-12T02:45:55.865Z,97730.56
2023-05-12T02:50:57.604Z,97732.47
2023-05-12T02:55:59.419Z,97734.09
2023-05-12T03:01:10.168Z,97722.16
2023-05-12T03:06:13.744Z,97731.06
2023-05-12T03:11:15.518Z,97731.75
2023-05-12T03:16:19.739Z,97732.56
2023-05-12T03:21:22.467Z,97734.47
2023-05-12T03:26:24.175Z,97734.16
2023-05-12T03:31:26.152Z,97731.56
2023-05-12T03:36:28.021Z,97725.09
2023-05-12T03:41:31.429Z,97727.66
2023-05-12T03:46:33.407Z,97734.13
2023-05-12T03:51:35.151Z,97730.06
2023-05-12T03:56:36.785Z,97724.88
2023-05-12T04:01:38.832Z,97733.00
2023-05-12T04:06:40.553Z,97727.31
2023-05-12T04:11:42.738Z,97731.19
2023-05-12T04:16:44.346Z,97742.69
2023-05-12T04:21:46.183Z,97743.97
2023-05-12T04:26:47.858Z,97743.03
2023-05-12T04:31:49.642Z,97754.00
2023-05-12T04:36:51.594Z,97749.09
2023-05-12T04:41:54.165Z,97758.78
2023-05-12T04:46:56.633Z,97755.56
2023-05-12T04:51:58.797Z,97757.59
2023-05-12T04:57:00.494Z,97761.41
2023-05-12T05:02:02.415Z,97762.31
2023-05-12T05:07:04.550Z,97760.84
2023-05-12T05:12:07.595Z,97763.63
2023-05-12T05:17:11.282Z,97769.81
2023-05-12T05:22:13.956Z,97778.84
2023-05-12T05:27:15.757Z,97787.38
2023-05-12T05:32:18.240Z,97786.22
2023-05-12T05:37:20.357Z,97786.69
2023-05-12T05:42:22.036Z,97787.91
2023-05-12T05:47:24.507Z,97785.00
2023-05-12T05:52:26.325Z,97788.16
2023-05-12T05:57:28.290Z,97793.53
2023-05-12T06:02:33.398Z,97807.25
2023-05-12T06:07:35.408Z,97803.09
2023-05-12T06:12:40.513Z,97806.69
2023-05-12T06:17:42.197Z,97798.34
2023-05-12T06:22:44.429Z,97804.44
2023-05-12T06:27:46.195Z,97807.50
2023-05-12T06:32:47.875Z,97816.56
2023-05-12T06:37:50.756Z,97810.31
2023-05-12T06:42:52.422Z,97812.75
2023-05-12T06:47:55.528Z,97817.56
2023-05-12T06:52:57.171Z,97822.00
2023-05-12T06:57:58.792Z,97822.19
2023-05-12T07:03:00.493Z,97821.00
2023-05-12T07:08:02.100Z,97825.41
2023-05-12T07:13:04.376Z,97815.97
2023-05-12T07:18:06.340Z,97811.50
2023-05-12T07:23:09.257Z,97810.03
2023-05-12T07:28:11.444Z,97811.06
2023-05-12T07:33:13.391Z,97819.97
2023-05-12T07:38:15.393Z,97823.25
2023-05-12T07:43:17.516Z,97817.78
2023-05-12T07:48:19.622Z,97819.88
2023-05-12T07:53:21.255Z,97819.69
2023-05-12T07:58:22.913Z,97815.22
2023-05-12T08:03:24.547Z,97817.53
2023-05-12T08:08:26.248Z,97822.56
2023-05-12T08:13:27.974Z,97813.41
2023-05-12T08:18:30.096Z,97827.19
2023-05-12T08:23:31.902Z,97824.19
2023-05-12T08:28:34.197Z,97829.59
2023-05-12T08:33:36.495Z,97833.44
2023-05-12T08:38:38.237Z,97838.81
2023-05-12T08:43:50.928Z,97833.81
2023-05-12T08:48:55.480Z,97828.28
2023-05-12T08:53:57.310Z,97824.25
2023-05-12T08:59:00.969Z,97828.00
2023-05-12T09:04:06.078Z,97827.50
2023-05-12T09:09:07.972Z,97824.69
2023-05-12T09:14:18.056Z,97820.38
2023-05-12T09:19:21.292Z,97819.59
2023-05-12T09:24:37.306Z,97819.69
2023-05-12T09:29:58.571Z,97813.97
2023-05-12T09:35:11.461Z,97811.53
2023-05-12T09:40:13.852Z,97823.38
2023-05-12T09:45:15.566Z,97816.53
2023-05-12T09:50:18.908Z,97819.84
2023-05-12T09:55:21.123Z,97824.69
2023-05-12T10:00:38.595Z,97819.25
2023-05-12T10:05:57.565Z,97826.53
2023-05-12T10:11:01.952Z,97821.75
2023-05-12T10:16:04.750Z,97827.72
2023-05-12T10:21:08.154Z,97836.66
2023-05-12T10:26:11.427Z,97827.72
2023-05-12T10:31:13.872Z,97825.44
2023-05-12T10:36:19.677Z,97820.66
2023-05-12T10:41:35.316Z,97829.81
2023-05-12T10:46:37.478Z,97828.22
2023-05-12T10:51:47.978Z,97834.75
2023-05-12T10:56:50.162Z,97827.41
2023-05-12T11:02:05.460Z,97827.09
2023-05-12T11:07:09.989Z,97829.38
2023-05-12T11:12:12.967Z,97835.47
2023-05-12T11:17:15.892Z,97838.19
2023-05-12T11:22:20.253Z,97830.16
2023-05-12T11:27:23.489Z,97825.41
2023-05-12T11:32:25.461Z,97823.16
2023-05-12T11:37:27.117Z,97836.59
2023-05-12T11:42:28.736Z,97852.06
2023-05-12T11:47:30.472Z,97850.03
2023-05-12T11:52:32.203Z,97849.75
2023-05-12T11:57:37.809Z,97848.78
2023-05-12T12:02:43.282Z,97846.09
2023-05-12T12:07:45.089Z,97859.47
2023-05-12T12:12:46.765Z,97864.06
2023-05-12T12:17:48.431Z,97865.72
2023-05-12T12:22:50.483Z,97855.25
2023-05-12T12:27:52.955Z,97867.66
2023-05-12T12:32:54.643Z,97861.09
2023-05-12T12:37:56.315Z,97861.09
2023-05-12T12:42:57.952Z,97866.56
2023-05-12T12:47:59.740Z,97863.59
2023-05-12T12:53:01.675Z,97867.09
2023-05-12T12:58:03.306Z,97868.44
2023-05-12T13:03:05.471Z,97873.44
2023-05-12T13:08:07.276Z,97864.69
2023-05-12T13:13:11.899Z,97879.06
2023-05-12T13:18:13.692Z,97860.53
2023-05-12T13:23:15.409Z,97863.44
2023-05-12T13:28:17.014Z,97859.66
2023-05-12T13:33:18.713Z,97861.03
2023-05-12T13:38:20.466Z,97871.31
2023-05-12T13:43:22.385Z,97859.03
2023-05-12T13:48:23.987Z,97863.53
2023-05-12T13:53:25.664Z,97865.97
2023-05-12T13:58:27.273Z,97852.06
2023-05-12T14:03:28.924Z,97850.34
2023-05-12T14:08:30.678Z,97848.03
2023-05-12T14:13:32.337Z,97852.44
2023-05-12T14:18:34.104Z,97858.47
2023-05-12T14:23:36.565Z,97850.47
2023-05-12T14:28:38.931Z,97855.50
2023-05-12T14:33:41.022Z,97860.03
2023-05-12T14:38:42.679Z,97870.59
2023-05-12T14:43:44.364Z,97877.78
2023-05-12T14:48:48.898Z,97872.00
2023-05-12T14:53:50.917Z,97866.88
2023-05-12T14:58:52.541Z,97864.78
2023-05-12T15:03:54.453Z,97861.22
2023-05-12T15:08:56.041Z,97852.13
2023-05-12T15:13:57.785Z,97855.91
2023-05-12T15:18:59.531Z,97856.22
2023-05-12T15:24:01.202Z,97861.69
2023-05-12T15:29:02.831Z,97864.13
2023-05-12T15:34:04.471Z,97858.94
2023-05-12T15:39:06.145Z,97863.75
2023-05-12T15:44:07.854Z,97878.31
2023-05-12T15:49:10.182Z,97878.16
2023-05-12T15:54:12.509Z,97880.84
2023-05-12T15:59:14.225Z,97877.78
2023-05-12T16:04:15.895Z,97868.75
2023-05-12T16:09:17.554Z,97865.06
2023-05-12T16:14:19.287Z,97853.66
2023-05-12T16:19:20.950Z,97864.66
2023-05-12T16:24:23.594Z,97877.50
2023-05-12T16:29:25.389Z,97882.81
2023-05-12T16:34:27.473Z,97889.50
2023-05-12T16:39:29.274Z,97881.03
2023-05-12T16:44:30.954Z,97888.34
2023-05-12T16:49:32.652Z,97886.47
2023-05-12T16:54:34.274Z,97894.97
2023-05-12T16:59:36.419Z,97902.13
2023-05-12T17:04:38.076Z,97893.84
2023-05-12T17:09:39.854Z,97893.59
2023-05-12T17:14:41.757Z,97893.38
2023-05-12T17:19:44.401Z,97894.75
2023-05-12T17:24:46.931Z,97897.72
2023-05-12T17:29:48.614Z,97902.69
2023-05-12T17:34:51.130Z,97900.63
2023-05-12T17:39:52.788Z,97899.13
2023-05-12T17:44:54.411Z,97897.09
2023-05-12T17:49:56.553Z,97896.81
2023-05-12T17:54:58.354Z,97901.13
2023-05-12T18:00:01.455Z,97911.88
2023-05-12T18:05:03.331Z,97923.59
2023-05-12T18:10:09.852Z,97959.84
2023-05-12T18:15:11.805Z,97965.28
2023-05-12T18:20:13.887Z,97963.47
2023-05-12T18:25:15.505Z,97964.84
2023-05-12T18:30:17.205Z,97964.94
2023-05-12T18:35:19.751Z,97947.59
2023-05-12T18:40:21.872Z,97952.25
2023-05-12T18:45:23.832Z,97938.47
2023-05-12T18:50:25.670Z,97914.66
2023-05-12T18:55:27.264Z,97901.06
2023-05-12T19:00:31.964Z,97899.50
2023-05-12T19:05:33.729Z,97912.53
2023-05-12T19:10:37.898Z,97940.66
2023-05-12T19:15:41.009Z,97961.84
2023-05-12T19:20:42.864Z,97955.06
2023-05-12T19:25:44.732Z,97953.09
2023-05-12T19:30:46.383Z,97963.19
2023-05-12T19:35:48.259Z,97967.91
2023-05-12T19:40:49.889Z,97965.28
2023-05-12T19:45:51.571Z,97979.06
2023-05-12T19:50:54.473Z,97984.47
2023-05-12T19:55:56.869Z,97986.78
2023-05-12T20:00:58.661Z,97984.59
2023-05-12T20:06:00.536Z,97983.72
2023-05-12T20:11:02.160Z,97988.41
2023-05-12T20:16:04.145Z,97992.72
2023-05-12T20:21:05.761Z,97980.69
2023-05-12T20:26:07.487Z,97984.19
2023-05-12T20:31:10.128Z,97994.00
2023-05-12T20:36:11.878Z,98004.41
2023-05-12T20:41:13.831Z,98006.41
2023-05-12T20:46:15.590Z,98005.03
2023-05-12T20:51:17.307Z,98000.66
2023-05-12T20:56:19.622Z,98003.94
2023-05-12T21:01:21.409Z,98017.72
2023-05-12T21:06:23.136Z,98012.28
2023-05-12T21:11:24.862Z,98010.94
2023-05-12T21:16:26.619Z,98013.81
2023-05-12T21:21:28.630Z,98019.03
2023-05-12T21:26:30.255Z,98015.06
2023-05-12T21:31:32.108Z,98018.41
2023-05-12T21:36:33.729Z,98012.13
2023-05-12T21:41:35.848Z,98018.53
2023-05-12T21:46:37.632Z,98022.91
2023-05-12T21:51:39.390Z,98028.72
2023-05-12T21:56:41.027Z,98029.72
2023-05-12T22:01:42.926Z,98023.88
2023-05-12T22:06:44.642Z,98024.78
2023-05-12T22:11:46.678Z,98027.41
2023-05-12T22:16:48.358Z,98042.41
2023-05-12T22:21:50.019Z,98043.69
2023-05-12T22:26:51.707Z,98042.41
2023-05-12T22:31:54.423Z,98036.72
2023-05-12T22:36:56.049Z,98043.88
2023-05-12T22:41:57.649Z,98050.69
2023-05-12T22:46:59.314Z,98063.16
2023-05-12T22:52:01.016Z,98079.22
2023-05-12T22:57:02.608Z,98079.50
2023-05-12T23:02:04.373Z,98077.69
2023-05-12T23:07:08.908Z,98082.34
2023-05-12T23:12:10.821Z,98082.16
2023-05-12T23:17:12.514Z,98075.19
2023-05-12T23:22:14.144Z,98069.34
2023-05-12T23:27:15.769Z,98071.09
2023-05-12T23:32:17.573Z,98066.19
2023-05-12T23:37:22.220Z,98069.41
2023-05-12T23:42:23.827Z,98066.50
2023-05-12T23:47:25.460Z,98069.09
2023-05-12T23:52:27.210Z,98072.16
2023-05-12T23:57:28.886Z,98069.44
